sensor_id;sensor_type;location;lat;lon;timestamp;P1;durP1;ratioP1;P2;durP2;ratioP2
54261;SDS011;40174;52.364;6.452;2023-03-21T00:02:02;31.83;;;12.77;;
54261;SDS011;40174;52.364;6.452;2023-03-21T00:04:28;31.55;;;13.73;;
54261;SDS011;40174;52.364;6.452;2023-03-21T00:06:55;28.33;;;13.50;;
54261;SDS011;40174;52.364;6.452;2023-03-21T00:09:23;34.53;;;13.38;;
54261;SDS011;40174;52.364;6.452;2023-03-21T00:11:51;26.55;;;12.23;;
54261;SDS011;40174;52.364;6.452;2023-03-21T00:14:18;29.38;;;11.48;;
54261;SDS011;40174;52.364;6.452;2023-03-21T00:16:44;33.63;;;13.77;;
54261;SDS011;40174;52.364;6.452;2023-03-21T00:19:14;32.00;;;12.60;;
54261;SDS011;40174;52.364;6.452;2023-03-21T00:21:41;27.45;;;12.35;;
54261;SDS011;40174;52.364;6.452;2023-03-21T00:24:09;30.45;;;13.50;;
54261;SDS011;40174;52.364;6.452;2023-03-21T00:26:37;37.20;;;13.85;;
54261;SDS011;40174;52.364;6.452;2023-03-21T00:29:04;32.28;;;13.13;;
54261;SDS011;40174;52.364;6.452;2023-03-21T00:31:31;31.90;;;13.68;;
54261;SDS011;40174;52.364;6.452;2023-03-21T00:33:58;30.58;;;12.45;;
54261;SDS011;40174;52.364;6.452;2023-03-21T00:36:25;33.55;;;13.52;;
54261;SDS011;40174;52.364;6.452;2023-03-21T00:38:52;31.58;;;12.77;;
54261;SDS011;40174;52.364;6.452;2023-03-21T00:41:19;30.42;;;12.57;;
54261;SDS011;40174;52.364;6.452;2023-03-21T00:43:47;33.03;;;14.02;;
54261;SDS011;40174;52.364;6.452;2023-03-21T00:46:13;32.40;;;12.18;;
54261;SDS011;40174;52.364;6.452;2023-03-21T00:48:40;37.53;;;12.98;;
54261;SDS011;40174;52.364;6.452;2023-03-21T00:51:10;31.48;;;13.43;;
54261;SDS011;40174;52.364;6.452;2023-03-21T00:53:39;28.27;;;12.18;;
54261;SDS011;40174;52.364;6.452;2023-03-21T00:56:07;35.00;;;13.65;;
54261;SDS011;40174;52.364;6.452;2023-03-21T00:58:34;25.50;;;12.10;;
54261;SDS011;40174;52.364;6.452;2023-03-21T01:01:02;32.97;;;12.38;;
54261;SDS011;40174;52.364;6.452;2023-03-21T01:03:32;34.92;;;12.55;;
54261;SDS011;40174;52.364;6.452;2023-03-21T01:06:10;30.48;;;13.07;;
54261;SDS011;40174;52.364;6.452;2023-03-21T01:08:38;30.80;;;12.75;;
54261;SDS011;40174;52.364;6.452;2023-03-21T01:11:06;32.67;;;13.05;;
54261;SDS011;40174;52.364;6.452;2023-03-21T01:13:35;30.95;;;13.57;;
54261;SDS011;40174;52.364;6.452;2023-03-21T01:16:03;31.10;;;12.88;;
54261;SDS011;40174;52.364;6.452;2023-03-21T01:18:32;28.63;;;12.70;;
54261;SDS011;40174;52.364;6.452;2023-03-21T01:21:00;31.42;;;13.23;;
54261;SDS011;40174;52.364;6.452;2023-03-21T01:23:27;35.03;;;13.40;;
54261;SDS011;40174;52.364;6.452;2023-03-21T01:25:54;34.42;;;13.43;;
54261;SDS011;40174;52.364;6.452;2023-03-21T01:28:24;34.20;;;13.02;;
54261;SDS011;40174;52.364;6.452;2023-03-21T01:30:52;30.75;;;12.93;;
54261;SDS011;40174;52.364;6.452;2023-03-21T01:33:20;38.45;;;15.18;;
54261;SDS011;40174;52.364;6.452;2023-03-21T01:35:47;28.63;;;12.50;;
54261;SDS011;40174;52.364;6.452;2023-03-21T01:38:14;32.47;;;11.95;;
54261;SDS011;40174;52.364;6.452;2023-03-21T01:40:43;41.53;;;13.40;;
54261;SDS011;40174;52.364;6.452;2023-03-21T01:43:24;30.70;;;13.43;;
54261;SDS011;40174;52.364;6.452;2023-03-21T01:49:27;36.55;;;12.63;;
54261;SDS011;40174;52.364;6.452;2023-03-21T01:52:19;26.92;;;11.35;;
54261;SDS011;40174;52.364;6.452;2023-03-21T01:54:49;31.88;;;12.57;;
54261;SDS011;40174;52.364;6.452;2023-03-21T01:57:20;33.15;;;12.07;;
54261;SDS011;40174;52.364;6.452;2023-03-21T01:59:56;29.10;;;11.20;;
54261;SDS011;40174;52.364;6.452;2023-03-21T02:02:45;28.90;;;11.55;;
54261;SDS011;40174;52.364;6.452;2023-03-21T02:05:39;28.80;;;11.95;;
54261;SDS011;40174;52.364;6.452;2023-03-21T02:08:11;28.53;;;11.23;;
54261;SDS011;40174;52.364;6.452;2023-03-21T02:10:38;27.40;;;12.35;;
54261;SDS011;40174;52.364;6.452;2023-03-21T02:13:10;27.67;;;11.57;;
54261;SDS011;40174;52.364;6.452;2023-03-21T02:15:40;34.33;;;13.40;;
54261;SDS011;40174;52.364;6.452;2023-03-21T02:18:36;33.15;;;12.48;;
54261;SDS011;40174;52.364;6.452;2023-03-21T02:21:12;31.08;;;11.55;;
54261;SDS011;40174;52.364;6.452;2023-03-21T02:24:04;24.23;;;10.63;;
54261;SDS011;40174;52.364;6.452;2023-03-21T02:26:53;29.17;;;11.13;;
54261;SDS011;40174;52.364;6.452;2023-03-21T02:29:37;28.75;;;11.65;;
54261;SDS011;40174;52.364;6.452;2023-03-21T02:32:17;29.80;;;11.93;;
54261;SDS011;40174;52.364;6.452;2023-03-21T02:35:03;24.92;;;10.80;;
54261;SDS011;40174;52.364;6.452;2023-03-21T02:37:56;28.02;;;11.20;;
54261;SDS011;40174;52.364;6.452;2023-03-21T02:40:29;25.63;;;10.07;;
54261;SDS011;40174;52.364;6.452;2023-03-21T02:43:01;27.52;;;11.35;;
54261;SDS011;40174;52.364;6.452;2023-03-21T02:45:35;25.42;;;10.65;;
54261;SDS011;40174;52.364;6.452;2023-03-21T02:48:06;25.75;;;10.98;;
54261;SDS011;40174;52.364;6.452;2023-03-21T02:50:39;24.10;;;10.85;;
54261;SDS011;40174;52.364;6.452;2023-03-21T02:53:11;23.10;;;11.10;;
54261;SDS011;40174;52.364;6.452;2023-03-21T02:55:41;24.95;;;11.18;;
54261;SDS011;40174;52.364;6.452;2023-03-21T02:58:10;27.58;;;12.05;;
54261;SDS011;40174;52.364;6.452;2023-03-21T03:00:45;27.40;;;10.52;;
54261;SDS011;40174;52.364;6.452;2023-03-21T03:03:22;28.27;;;10.40;;
54261;SDS011;40174;52.364;6.452;2023-03-21T03:05:49;26.23;;;11.35;;
54261;SDS011;40174;52.364;6.452;2023-03-21T03:08:23;27.48;;;12.32;;
54261;SDS011;40174;52.364;6.452;2023-03-21T03:10:58;25.33;;;10.45;;
54261;SDS011;40174;52.364;6.452;2023-03-21T03:13:37;22.95;;;10.68;;
54261;SDS011;40174;52.364;6.452;2023-03-21T03:16:18;27.17;;;10.60;;
54261;SDS011;40174;52.364;6.452;2023-03-21T03:18:57;28.50;;;10.65;;
54261;SDS011;40174;52.364;6.452;2023-03-21T03:21:28;27.02;;;11.68;;
54261;SDS011;40174;52.364;6.452;2023-03-21T03:24:00;24.02;;;10.15;;
54261;SDS011;40174;52.364;6.452;2023-03-21T03:26:32;23.58;;;10.65;;
54261;SDS011;40174;52.364;6.452;2023-03-21T03:29:03;24.55;;;10.70;;
54261;SDS011;40174;52.364;6.452;2023-03-21T03:31:34;25.33;;;10.85;;
54261;SDS011;40174;52.364;6.452;2023-03-21T03:34:06;26.17;;;10.95;;
54261;SDS011;40174;52.364;6.452;2023-03-21T03:36:39;27.25;;;10.95;;
54261;SDS011;40174;52.364;6.452;2023-03-21T03:39:13;25.02;;;10.70;;
54261;SDS011;40174;52.364;6.452;2023-03-21T03:41:47;24.67;;;10.15;;
54261;SDS011;40174;52.364;6.452;2023-03-21T03:44:17;24.42;;;10.55;;
54261;SDS011;40174;52.364;6.452;2023-03-21T03:46:53;31.48;;;10.43;;
54261;SDS011;40174;52.364;6.452;2023-03-21T03:49:23;22.42;;;9.68;;
54261;SDS011;40174;52.364;6.452;2023-03-21T03:51:54;23.30;;;10.52;;
54261;SDS011;40174;52.364;6.452;2023-03-21T03:54:34;23.08;;;10.65;;
54261;SDS011;40174;52.364;6.452;2023-03-21T03:57:04;22.88;;;9.20;;
54261;SDS011;40174;52.364;6.452;2023-03-21T07:35:33;15.38;;;6.45;;
54261;SDS011;40174;52.364;6.452;2023-03-21T07:38:01;19.88;;;6.78;;
54261;SDS011;40174;52.364;6.452;2023-03-21T07:40:28;17.85;;;6.38;;
54261;SDS011;40174;52.364;6.452;2023-03-21T07:42:55;17.35;;;6.22;;
54261;SDS011;40174;52.364;6.452;2023-03-21T07:45:29;17.07;;;6.83;;
54261;SDS011;40174;52.364;6.452;2023-03-21T07:47:56;21.17;;;6.57;;
54261;SDS011;40174;52.364;6.452;2023-03-21T07:50:23;17.10;;;6.07;;
54261;SDS011;40174;52.364;6.452;2023-03-21T07:52:51;16.08;;;6.20;;
54261;SDS011;40174;52.364;6.452;2023-03-21T07:55:18;20.13;;;5.90;;
54261;SDS011;40174;52.364;6.452;2023-03-21T07:57:45;18.35;;;6.68;;
54261;SDS011;40174;52.364;6.452;2023-03-21T08:00:16;20.27;;;6.53;;
54261;SDS011;40174;52.364;6.452;2023-03-21T08:02:47;15.40;;;6.38;;
54261;SDS011;40174;52.364;6.452;2023-03-21T08:05:19;17.52;;;6.28;;
54261;SDS011;40174;52.364;6.452;2023-03-21T08:07:46;16.17;;;6.28;;
54261;SDS011;40174;52.364;6.452;2023-03-21T08:10:14;15.18;;;6.22;;
54261;SDS011;40174;52.364;6.452;2023-03-21T08:12:41;15.13;;;6.10;;
54261;SDS011;40174;52.364;6.452;2023-03-21T08:15:08;18.77;;;6.32;;
54261;SDS011;40174;52.364;6.452;2023-03-21T08:17:36;18.45;;;6.40;;
54261;SDS011;40174;52.364;6.452;2023-03-21T08:20:04;18.38;;;6.03;;
54261;SDS011;40174;52.364;6.452;2023-03-21T08:22:33;18.25;;;6.45;;
54261;SDS011;40174;52.364;6.452;2023-03-21T08:25:00;21.83;;;7.57;;
54261;SDS011;40174;52.364;6.452;2023-03-21T08:27:30;16.80;;;7.25;;
54261;SDS011;40174;52.364;6.452;2023-03-21T08:35:21;17.15;;;5.50;;
54261;SDS011;40174;52.364;6.452;2023-03-21T08:37:48;15.10;;;6.00;;
54261;SDS011;40174;52.364;6.452;2023-03-21T08:40:16;14.23;;;6.53;;
54261;SDS011;40174;52.364;6.452;2023-03-21T08:42:44;19.13;;;6.78;;
54261;SDS011;40174;52.364;6.452;2023-03-21T08:45:12;21.13;;;7.32;;
54261;SDS011;40174;52.364;6.452;2023-03-21T08:47:40;17.92;;;6.78;;
54261;SDS011;40174;52.364;6.452;2023-03-21T08:50:08;13.93;;;6.30;;
54261;SDS011;40174;52.364;6.452;2023-03-21T08:52:37;16.00;;;6.20;;
54261;SDS011;40174;52.364;6.452;2023-03-21T08:55:03;18.73;;;6.05;;
54261;SDS011;40174;52.364;6.452;2023-03-21T08:57:30;15.10;;;5.80;;
54261;SDS011;40174;52.364;6.452;2023-03-21T08:59:58;16.73;;;6.18;;
54261;SDS011;40174;52.364;6.452;2023-03-21T09:02:25;14.68;;;6.00;;
54261;SDS011;40174;52.364;6.452;2023-03-21T09:04:52;13.60;;;5.30;;
54261;SDS011;40174;52.364;6.452;2023-03-21T09:07:19;15.98;;;6.60;;
54261;SDS011;40174;52.364;6.452;2023-03-21T09:09:46;15.30;;;6.90;;
54261;SDS011;40174;52.364;6.452;2023-03-21T09:12:16;15.13;;;6.35;;
54261;SDS011;40174;52.364;6.452;2023-03-21T09:14:42;12.60;;;5.70;;
54261;SDS011;40174;52.364;6.452;2023-03-21T09:17:10;17.48;;;6.60;;
54261;SDS011;40174;52.364;6.452;2023-03-21T09:19:37;17.50;;;6.18;;
54261;SDS011;40174;52.364;6.452;2023-03-21T09:22:04;16.48;;;6.30;;
54261;SDS011;40174;52.364;6.452;2023-03-21T09:24:38;13.45;;;5.90;;
54261;SDS011;40174;52.364;6.452;2023-03-21T09:27:05;15.15;;;6.55;;
54261;SDS011;40174;52.364;6.452;2023-03-21T09:29:32;14.57;;;6.68;;
54261;SDS011;40174;52.364;6.452;2023-03-21T09:31:59;18.55;;;6.70;;
54261;SDS011;40174;52.364;6.452;2023-03-21T09:34:29;13.95;;;6.35;;
54261;SDS011;40174;52.364;6.452;2023-03-21T09:36:56;15.45;;;6.70;;
54261;SDS011;40174;52.364;6.452;2023-03-21T09:39:22;22.17;;;6.40;;
54261;SDS011;40174;52.364;6.452;2023-03-21T09:41:59;13.75;;;5.78;;
54261;SDS011;40174;52.364;6.452;2023-03-21T09:44:46;20.02;;;6.35;;
54261;SDS011;40174;52.364;6.452;2023-03-21T09:47:19;15.00;;;6.20;;
54261;SDS011;40174;52.364;6.452;2023-03-21T09:49:51;13.10;;;6.07;;
54261;SDS011;40174;52.364;6.452;2023-03-21T09:52:24;16.45;;;6.03;;
54261;SDS011;40174;52.364;6.452;2023-03-21T09:54:56;12.57;;;5.43;;
54261;SDS011;40174;52.364;6.452;2023-03-21T09:57:26;14.77;;;6.40;;
54261;SDS011;40174;52.364;6.452;2023-03-21T09:59:58;17.60;;;6.47;;
54261;SDS011;40174;52.364;6.452;2023-03-21T10:02:37;15.85;;;6.60;;
54261;SDS011;40174;52.364;6.452;2023-03-21T10:05:11;13.05;;;4.95;;
54261;SDS011;40174;52.364;6.452;2023-03-21T10:07:45;14.80;;;5.13;;
54261;SDS011;40174;52.364;6.452;2023-03-21T10:10:19;15.18;;;6.70;;
54261;SDS011;40174;52.364;6.452;2023-03-21T10:12:48;14.65;;;5.40;;
54261;SDS011;40174;52.364;6.452;2023-03-21T10:15:17;13.18;;;4.57;;
54261;SDS011;40174;52.364;6.452;2023-03-21T10:17:48;16.27;;;4.60;;
54261;SDS011;40174;52.364;6.452;2023-03-21T10:20:20;12.32;;;4.90;;
54261;SDS011;40174;52.364;6.452;2023-03-21T10:22:49;11.18;;;4.63;;
54261;SDS011;40174;52.364;6.452;2023-03-21T10:25:18;15.30;;;4.38;;
54261;SDS011;40174;52.364;6.452;2023-03-21T10:27:47;13.32;;;5.57;;
54261;SDS011;40174;52.364;6.452;2023-03-21T10:30:22;13.15;;;4.10;;
54261;SDS011;40174;52.364;6.452;2023-03-21T10:32:53;12.23;;;4.60;;
54261;SDS011;40174;52.364;6.452;2023-03-21T10:35:24;11.63;;;4.75;;
54261;SDS011;40174;52.364;6.452;2023-03-21T10:37:50;9.43;;;4.43;;
54261;SDS011;40174;52.364;6.452;2023-03-21T10:40:17;13.15;;;4.78;;
54261;SDS011;40174;52.364;6.452;2023-03-21T10:42:45;12.45;;;4.90;;
54261;SDS011;40174;52.364;6.452;2023-03-21T10:45:13;12.80;;;4.45;;
54261;SDS011;40174;52.364;6.452;2023-03-21T10:47:46;11.65;;;4.80;;
54261;SDS011;40174;52.364;6.452;2023-03-21T10:50:15;13.32;;;3.97;;
54261;SDS011;40174;52.364;6.452;2023-03-21T10:52:52;17.63;;;4.15;;
54261;SDS011;40174;52.364;6.452;2023-03-21T10:55:25;14.52;;;4.88;;
54261;SDS011;40174;52.364;6.452;2023-03-21T10:57:56;11.77;;;4.43;;
54261;SDS011;40174;52.364;6.452;2023-03-21T11:00:28;16.02;;;4.97;;
54261;SDS011;40174;52.364;6.452;2023-03-21T11:02:59;12.40;;;4.50;;
54261;SDS011;40174;52.364;6.452;2023-03-21T11:05:32;12.73;;;4.43;;
54261;SDS011;40174;52.364;6.452;2023-03-21T11:08:03;10.55;;;4.15;;
54261;SDS011;40174;52.364;6.452;2023-03-21T11:10:32;14.63;;;4.72;;
54261;SDS011;40174;52.364;6.452;2023-03-21T11:13:02;14.23;;;5.13;;
54261;SDS011;40174;52.364;6.452;2023-03-21T11:15:33;10.25;;;4.13;;
54261;SDS011;40174;52.364;6.452;2023-03-21T11:18:14;11.05;;;4.47;;
54261;SDS011;40174;52.364;6.452;2023-03-21T11:20:48;15.02;;;4.63;;
54261;SDS011;40174;52.364;6.452;2023-03-21T11:23:17;15.07;;;4.35;;
54261;SDS011;40174;52.364;6.452;2023-03-21T11:25:46;12.75;;;4.60;;
54261;SDS011;40174;52.364;6.452;2023-03-21T11:28:15;11.82;;;4.22;;
54261;SDS011;40174;52.364;6.452;2023-03-21T11:30:53;10.25;;;4.30;;
54261;SDS011;40174;52.364;6.452;2023-03-21T11:33:22;10.27;;;4.28;;
54261;SDS011;40174;52.364;6.452;2023-03-21T11:35:59;12.38;;;4.45;;
54261;SDS011;40174;52.364;6.452;2023-03-21T11:38:30;15.45;;;4.22;;
54261;SDS011;40174;52.364;6.452;2023-03-21T11:41:01;12.18;;;4.30;;
54261;SDS011;40174;52.364;6.452;2023-03-21T11:43:29;11.95;;;4.43;;
54261;SDS011;40174;52.364;6.452;2023-03-21T11:45:58;10.93;;;4.10;;
54261;SDS011;40174;52.364;6.452;2023-03-21T11:48:30;11.27;;;4.30;;
54261;SDS011;40174;52.364;6.452;2023-03-21T11:51:01;10.95;;;4.25;;
54261;SDS011;40174;52.364;6.452;2023-03-21T11:53:39;10.77;;;4.43;;
54261;SDS011;40174;52.364;6.452;2023-03-21T11:59:06;11.50;;;3.78;;
54261;SDS011;40174;52.364;6.452;2023-03-21T12:01:51;10.65;;;4.07;;
54261;SDS011;40174;52.364;6.452;2023-03-21T12:04:29;10.45;;;3.80;;
54261;SDS011;40174;52.364;6.452;2023-03-21T12:07:08;11.55;;;3.88;;
54261;SDS011;40174;52.364;6.452;2023-03-21T12:09:47;8.50;;;3.50;;
54261;SDS011;40174;52.364;6.452;2023-03-21T12:12:25;7.68;;;3.50;;
54261;SDS011;40174;52.364;6.452;2023-03-21T12:15:00;12.48;;;3.92;;
54261;SDS011;40174;52.364;6.452;2023-03-21T12:17:42;15.00;;;3.63;;
54261;SDS011;40174;52.364;6.452;2023-03-21T12:20:20;9.55;;;3.25;;
54261;SDS011;40174;52.364;6.452;2023-03-21T12:22:57;10.00;;;4.32;;
54261;SDS011;40174;52.364;6.452;2023-03-21T12:25:36;11.57;;;4.72;;
54261;SDS011;40174;52.364;6.452;2023-03-21T12:28:09;12.47;;;3.73;;
54261;SDS011;40174;52.364;6.452;2023-03-21T12:30:48;9.13;;;4.10;;
54261;SDS011;40174;52.364;6.452;2023-03-21T12:33:27;13.73;;;3.85;;
54261;SDS011;40174;52.364;6.452;2023-03-21T12:36:08;11.02;;;3.63;;
54261;SDS011;40174;52.364;6.452;2023-03-21T12:38:46;11.10;;;3.65;;
54261;SDS011;40174;52.364;6.452;2023-03-21T12:41:23;8.05;;;3.35;;
54261;SDS011;40174;52.364;6.452;2023-03-21T12:43:55;8.85;;;3.15;;
54261;SDS011;40174;52.364;6.452;2023-03-21T12:46:26;9.57;;;3.45;;
54261;SDS011;40174;52.364;6.452;2023-03-21T12:48:58;7.70;;;3.35;;
54261;SDS011;40174;52.364;6.452;2023-03-21T12:51:28;8.80;;;3.67;;
54261;SDS011;40174;52.364;6.452;2023-03-21T12:53:59;7.55;;;3.13;;
54261;SDS011;40174;52.364;6.452;2023-03-21T12:56:34;13.27;;;3.58;;
54261;SDS011;40174;52.364;6.452;2023-03-21T12:59:07;8.60;;;3.03;;
54261;SDS011;40174;52.364;6.452;2023-03-21T13:01:43;7.45;;;2.72;;
54261;SDS011;40174;52.364;6.452;2023-03-21T13:04:23;8.32;;;3.47;;
54261;SDS011;40174;52.364;6.452;2023-03-21T13:07:00;13.23;;;3.90;;
54261;SDS011;40174;52.364;6.452;2023-03-21T13:09:33;9.20;;;3.40;;
54261;SDS011;40174;52.364;6.452;2023-03-21T13:12:04;6.80;;;2.75;;
54261;SDS011;40174;52.364;6.452;2023-03-21T13:14:42;6.50;;;2.83;;
54261;SDS011;40174;52.364;6.452;2023-03-21T13:17:21;8.23;;;3.00;;
54261;SDS011;40174;52.364;6.452;2023-03-21T13:19:53;7.75;;;3.20;;
54261;SDS011;40174;52.364;6.452;2023-03-21T13:22:25;6.93;;;2.83;;
54261;SDS011;40174;52.364;6.452;2023-03-21T13:24:56;15.52;;;3.22;;
54261;SDS011;40174;52.364;6.452;2023-03-21T13:27:27;12.35;;;3.45;;
54261;SDS011;40174;52.364;6.452;2023-03-21T13:29:59;13.68;;;3.35;;
54261;SDS011;40174;52.364;6.452;2023-03-21T13:32:31;8.77;;;3.83;;
54261;SDS011;40174;52.364;6.452;2023-03-21T13:35:00;7.15;;;3.05;;
54261;SDS011;40174;52.364;6.452;2023-03-21T13:37:38;12.55;;;3.00;;
54261;SDS011;40174;52.364;6.452;2023-03-21T13:40:19;8.20;;;3.17;;
54261;SDS011;40174;52.364;6.452;2023-03-21T13:42:51;8.40;;;2.90;;
54261;SDS011;40174;52.364;6.452;2023-03-21T13:45:25;9.73;;;3.08;;
54261;SDS011;40174;52.364;6.452;2023-03-21T13:47:56;10.45;;;2.97;;
54261;SDS011;40174;52.364;6.452;2023-03-21T13:50:34;7.47;;;2.90;;
54261;SDS011;40174;52.364;6.452;2023-03-21T13:53:19;7.55;;;2.97;;
54261;SDS011;40174;52.364;6.452;2023-03-21T13:55:57;7.95;;;3.15;;
54261;SDS011;40174;52.364;6.452;2023-03-21T13:58:34;9.05;;;3.63;;
54261;SDS011;40174;52.364;6.452;2023-03-21T14:01:20;9.63;;;4.38;;
54261;SDS011;40174;52.364;6.452;2023-03-21T14:03:55;6.57;;;2.95;;
54261;SDS011;40174;52.364;6.452;2023-03-21T14:06:25;9.60;;;2.97;;
54261;SDS011;40174;52.364;6.452;2023-03-21T14:08:59;9.65;;;3.63;;
54261;SDS011;40174;52.364;6.452;2023-03-21T14:11:27;8.52;;;3.22;;
54261;SDS011;40174;52.364;6.452;2023-03-21T14:13:58;11.60;;;3.45;;
54261;SDS011;40174;52.364;6.452;2023-03-21T14:16:26;10.55;;;3.42;;
54261;SDS011;40174;52.364;6.452;2023-03-21T14:18:55;10.48;;;3.42;;
54261;SDS011;40174;52.364;6.452;2023-03-21T14:21:25;12.75;;;3.35;;
54261;SDS011;40174;52.364;6.452;2023-03-21T14:23:59;10.30;;;3.70;;
54261;SDS011;40174;52.364;6.452;2023-03-21T14:26:28;11.95;;;3.20;;
54261;SDS011;40174;52.364;6.452;2023-03-21T14:28:59;11.40;;;3.22;;
54261;SDS011;40174;52.364;6.452;2023-03-21T14:31:27;10.70;;;3.63;;
54261;SDS011;40174;52.364;6.452;2023-03-21T14:33:55;13.63;;;4.47;;
54261;SDS011;40174;52.364;6.452;2023-03-21T14:36:24;7.78;;;3.78;;
54261;SDS011;40174;52.364;6.452;2023-03-21T14:38:54;9.48;;;3.03;;
54261;SDS011;40174;52.364;6.452;2023-03-21T14:41:29;7.43;;;3.10;;
54261;SDS011;40174;52.364;6.452;2023-03-21T14:44:13;12.00;;;3.53;;
54261;SDS011;40174;52.364;6.452;2023-03-21T14:46:49;8.10;;;3.28;;
54261;SDS011;40174;52.364;6.452;2023-03-21T14:49:18;8.63;;;3.63;;
54261;SDS011;40174;52.364;6.452;2023-03-21T14:51:47;7.50;;;3.33;;
54261;SDS011;40174;52.364;6.452;2023-03-21T14:54:16;11.05;;;2.90;;
54261;SDS011;40174;52.364;6.452;2023-03-21T14:56:45;8.88;;;3.13;;
54261;SDS011;40174;52.364;6.452;2023-03-21T14:59:17;11.52;;;3.80;;
54261;SDS011;40174;52.364;6.452;2023-03-21T15:01:47;7.50;;;3.05;;
54261;SDS011;40174;52.364;6.452;2023-03-21T15:04:17;13.23;;;3.53;;
54261;SDS011;40174;52.364;6.452;2023-03-21T15:06:49;7.57;;;3.17;;
54261;SDS011;40174;52.364;6.452;2023-03-21T15:09:18;10.38;;;3.42;;
54261;SDS011;40174;52.364;6.452;2023-03-21T15:11:48;8.63;;;3.40;;
54261;SDS011;40174;52.364;6.452;2023-03-21T15:14:17;9.40;;;3.28;;
54261;SDS011;40174;52.364;6.452;2023-03-21T15:16:46;9.85;;;3.22;;
54261;SDS011;40174;52.364;6.452;2023-03-21T15:19:13;10.45;;;2.83;;
54261;SDS011;40174;52.364;6.452;2023-03-21T15:21:43;8.77;;;3.15;;
54261;SDS011;40174;52.364;6.452;2023-03-21T15:24:13;7.75;;;3.42;;
54261;SDS011;40174;52.364;6.452;2023-03-21T15:26:45;10.63;;;3.15;;
54261;SDS011;40174;52.364;6.452;2023-03-21T15:29:13;13.00;;;3.33;;
54261;SDS011;40174;52.364;6.452;2023-03-21T15:31:41;6.97;;;2.47;;
54261;SDS011;40174;52.364;6.452;2023-03-21T15:34:15;7.63;;;2.63;;
54261;SDS011;40174;52.364;6.452;2023-03-21T15:39:13;7.72;;;3.25;;
54261;SDS011;40174;52.364;6.452;2023-03-21T15:41:41;7.72;;;2.95;;
54261;SDS011;40174;52.364;6.452;2023-03-21T15:44:22;8.18;;;3.60;;
54261;SDS011;40174;52.364;6.452;2023-03-21T15:46:50;10.55;;;3.47;;
54261;SDS011;40174;52.364;6.452;2023-03-21T15:49:18;5.97;;;2.85;;
54261;SDS011;40174;52.364;6.452;2023-03-21T15:51:50;5.85;;;2.45;;
54261;SDS011;40174;52.364;6.452;2023-03-21T15:54:20;6.50;;;2.47;;
54261;SDS011;40174;52.364;6.452;2023-03-21T15:56:51;5.93;;;2.30;;
54261;SDS011;40174;52.364;6.452;2023-03-21T15:59:19;8.40;;;2.30;;
54261;SDS011;40174;52.364;6.452;2023-03-21T16:01:50;8.90;;;2.90;;
54261;SDS011;40174;52.364;6.452;2023-03-21T16:04:16;8.75;;;3.35;;
54261;SDS011;40174;52.364;6.452;2023-03-21T16:06:50;6.40;;;2.75;;
54261;SDS011;40174;52.364;6.452;2023-03-21T16:09:19;9.73;;;2.85;;
54261;SDS011;40174;52.364;6.452;2023-03-21T16:11:48;6.93;;;2.53;;
54261;SDS011;40174;52.364;6.452;2023-03-21T16:14:16;10.63;;;3.30;;
54261;SDS011;40174;52.364;6.452;2023-03-21T16:16:44;8.75;;;3.13;;
54261;SDS011;40174;52.364;6.452;2023-03-21T16:19:12;7.80;;;2.80;;
54261;SDS011;40174;52.364;6.452;2023-03-21T16:21:39;7.30;;;3.08;;
54261;SDS011;40174;52.364;6.452;2023-03-21T16:24:07;10.18;;;3.13;;
54261;SDS011;40174;52.364;6.452;2023-03-21T16:26:36;5.78;;;3.00;;
54261;SDS011;40174;52.364;6.452;2023-03-21T16:29:04;6.07;;;2.90;;
54261;SDS011;40174;52.364;6.452;2023-03-21T16:31:33;7.32;;;2.97;;
54261;SDS011;40174;52.364;6.452;2023-03-21T16:34:00;8.68;;;3.10;;
54261;SDS011;40174;52.364;6.452;2023-03-21T16:36:30;6.60;;;2.47;;
54261;SDS011;40174;52.364;6.452;2023-03-21T16:39:00;8.52;;;3.10;;
54261;SDS011;40174;52.364;6.452;2023-03-21T16:41:27;8.50;;;2.72;;
54261;SDS011;40174;52.364;6.452;2023-03-21T16:43:53;6.75;;;2.90;;
54261;SDS011;40174;52.364;6.452;2023-03-21T16:46:21;6.82;;;2.47;;
54261;SDS011;40174;52.364;6.452;2023-03-21T16:48:49;7.50;;;2.80;;
54261;SDS011;40174;52.364;6.452;2023-03-21T16:51:17;8.82;;;2.83;;
54261;SDS011;40174;52.364;6.452;2023-03-21T16:53:47;7.50;;;2.65;;
54261;SDS011;40174;52.364;6.452;2023-03-21T16:56:16;4.72;;;2.58;;
54261;SDS011;40174;52.364;6.452;2023-03-21T16:58:45;10.82;;;3.22;;
54261;SDS011;40174;52.364;6.452;2023-03-21T17:01:13;8.85;;;2.50;;
54261;SDS011;40174;52.364;6.452;2023-03-21T17:03:43;10.80;;;3.60;;
54261;SDS011;40174;52.364;6.452;2023-03-21T17:06:13;9.93;;;3.33;;
54261;SDS011;40174;52.364;6.452;2023-03-21T17:08:42;6.82;;;3.00;;
54261;SDS011;40174;52.364;6.452;2023-03-21T17:11:11;8.00;;;3.08;;
54261;SDS011;40174;52.364;6.452;2023-03-21T17:13:40;7.22;;;2.75;;
54261;SDS011;40174;52.364;6.452;2023-03-21T17:16:08;7.05;;;2.83;;
54261;SDS011;40174;52.364;6.452;2023-03-21T17:18:36;6.47;;;3.20;;
54261;SDS011;40174;52.364;6.452;2023-03-21T17:21:07;9.57;;;3.30;;
54261;SDS011;40174;52.364;6.452;2023-03-21T17:23:37;7.85;;;3.03;;
54261;SDS011;40174;52.364;6.452;2023-03-21T17:26:03;11.43;;;3.20;;
54261;SDS011;40174;52.364;6.452;2023-03-21T17:28:31;9.20;;;3.00;;
54261;SDS011;40174;52.364;6.452;2023-03-21T17:30:58;5.68;;;2.80;;
54261;SDS011;40174;52.364;6.452;2023-03-21T17:33:25;7.95;;;2.78;;
54261;SDS011;40174;52.364;6.452;2023-03-21T17:35:51;8.07;;;3.13;;
54261;SDS011;40174;52.364;6.452;2023-03-21T17:38:18;4.95;;;2.42;;
54261;SDS011;40174;52.364;6.452;2023-03-21T17:40:46;7.32;;;2.83;;
54261;SDS011;40174;52.364;6.452;2023-03-21T17:43:13;6.03;;;2.60;;
54261;SDS011;40174;52.364;6.452;2023-03-21T17:45:43;8.60;;;2.92;;
54261;SDS011;40174;52.364;6.452;2023-03-21T17:48:10;11.95;;;3.40;;
54261;SDS011;40174;52.364;6.452;2023-03-21T17:50:37;6.78;;;3.00;;
54261;SDS011;40174;52.364;6.452;2023-03-21T17:55:39;8.20;;;3.35;;
54261;SDS011;40174;52.364;6.452;2023-03-21T17:58:06;5.63;;;2.72;;
54261;SDS011;40174;52.364;6.452;2023-03-21T18:00:32;9.10;;;3.33;;
54261;SDS011;40174;52.364;6.452;2023-03-21T18:03:00;6.20;;;3.03;;
54261;SDS011;40174;52.364;6.452;2023-03-21T18:05:27;8.13;;;3.80;;
54261;SDS011;40174;52.364;6.452;2023-03-21T18:07:53;6.70;;;3.40;;
54261;SDS011;40174;52.364;6.452;2023-03-21T18:10:22;6.82;;;3.05;;
54261;SDS011;40174;52.364;6.452;2023-03-21T18:12:50;10.60;;;3.58;;
54261;SDS011;40174;52.364;6.452;2023-03-21T18:15:20;12.02;;;3.92;;
54261;SDS011;40174;52.364;6.452;2023-03-21T18:17:47;10.88;;;4.43;;
54261;SDS011;40174;52.364;6.452;2023-03-21T18:20:16;9.18;;;4.07;;
54261;SDS011;40174;52.364;6.452;2023-03-21T18:22:45;8.88;;;4.10;;
54261;SDS011;40174;52.364;6.452;2023-03-21T18:25:12;12.55;;;4.45;;
54261;SDS011;40174;52.364;6.452;2023-03-21T18:27:41;12.05;;;4.70;;
54261;SDS011;40174;52.364;6.452;2023-03-21T18:30:08;10.65;;;4.90;;
54261;SDS011;40174;52.364;6.452;2023-03-21T18:32:39;12.35;;;4.53;;
54261;SDS011;40174;52.364;6.452;2023-03-21T18:35:06;9.18;;;4.80;;
54261;SDS011;40174;52.364;6.452;2023-03-21T18:37:35;9.57;;;4.90;;
54261;SDS011;40174;52.364;6.452;2023-03-21T18:40:02;9.15;;;4.80;;
54261;SDS011;40174;52.364;6.452;2023-03-21T18:42:34;11.60;;;4.88;;
54261;SDS011;40174;52.364;6.452;2023-03-21T18:45:00;10.15;;;4.53;;
54261;SDS011;40174;52.364;6.452;2023-03-21T18:47:28;12.50;;;5.75;;
54261;SDS011;40174;52.364;6.452;2023-03-21T18:49:54;11.57;;;5.43;;
54261;SDS011;40174;52.364;6.452;2023-03-21T18:52:21;11.85;;;4.72;;